sensor_id;sensor_type;location;lat;lon;timestamp;P1;durP1;ratioP1;P2;durP2;ratioP2
76552;SDS011;65395;53.168;18.156;2023-10-19T00:02:06;24.90;;;12.00;;
76552;SDS011;65395;53.168;18.156;2023-10-19T00:04:33;23.90;;;10.90;;
76552;SDS011;65395;53.168;18.156;2023-10-19T00:07:02;23.90;;;11.40;;
76552;SDS011;65395;53.168;18.156;2023-10-19T00:09:32;18.60;;;10.00;;
76552;SDS011;65395;53.168;18.156;2023-10-19T00:12:04;20.80;;;10.00;;
76552;SDS011;65395;53.168;18.156;2023-10-19T00:14:35;23.80;;;10.90;;
76552;SDS011;65395;53.168;18.156;2023-10-19T00:17:02;28.70;;;13.70;;
76552;SDS011;65395;53.168;18.156;2023-10-19T00:19:37;25.10;;;13.40;;
76552;SDS011;65395;53.168;18.156;2023-10-19T00:22:07;26.80;;;12.40;;
76552;SDS011;65395;53.168;18.156;2023-10-19T00:24:35;24.10;;;11.60;;
76552;SDS011;65395;53.168;18.156;2023-10-19T00:27:02;23.10;;;12.00;;
76552;SDS011;65395;53.168;18.156;2023-10-19T00:29:42;24.00;;;11.80;;
76552;SDS011;65395;53.168;18.156;2023-10-19T00:32:15;24.80;;;12.70;;
76552;SDS011;65395;53.168;18.156;2023-10-19T00:34:44;24.80;;;12.10;;
76552;SDS011;65395;53.168;18.156;2023-10-19T00:37:18;21.20;;;11.00;;
76552;SDS011;65395;53.168;18.156;2023-10-19T00:39:53;25.40;;;11.00;;
76552;SDS011;65395;53.168;18.156;2023-10-19T00:42:21;22.90;;;11.00;;
76552;SDS011;65395;53.168;18.156;2023-10-19T00:44:56;24.10;;;11.70;;
76552;SDS011;65395;53.168;18.156;2023-10-19T00:47:31;24.10;;;11.90;;
76552;SDS011;65395;53.168;18.156;2023-10-19T00:50:06;26.60;;;11.90;;
76552;SDS011;65395;53.168;18.156;2023-10-19T00:52:38;24.50;;;13.20;;
76552;SDS011;65395;53.168;18.156;2023-10-19T00:55:10;28.60;;;13.40;;
76552;SDS011;65395;53.168;18.156;2023-10-19T00:57:40;28.80;;;14.00;;
76552;SDS011;65395;53.168;18.156;2023-10-19T01:00:13;25.90;;;14.80;;
76552;SDS011;65395;53.168;18.156;2023-10-19T01:02:48;31.30;;;15.70;;
76552;SDS011;65395;53.168;18.156;2023-10-19T01:05:17;31.20;;;15.30;;
76552;SDS011;65395;53.168;18.156;2023-10-19T01:07:48;29.50;;;15.50;;
76552;SDS011;65395;53.168;18.156;2023-10-19T01:10:23;33.30;;;17.00;;
76552;SDS011;65395;53.168;18.156;2023-10-19T01:12:51;36.90;;;17.90;;
76552;SDS011;65395;53.168;18.156;2023-10-19T01:15:20;31.20;;;17.40;;
76552;SDS011;65395;53.168;18.156;2023-10-19T01:17:57;37.30;;;18.30;;
76552;SDS011;65395;53.168;18.156;2023-10-19T01:20:26;38.50;;;19.60;;
76552;SDS011;65395;53.168;18.156;2023-10-19T01:23:04;35.50;;;19.10;;
76552;SDS011;65395;53.168;18.156;2023-10-19T01:25:48;36.40;;;18.20;;
76552;SDS011;65395;53.168;18.156;2023-10-19T01:28:34;36.90;;;19.30;;
76552;SDS011;65395;53.168;18.156;2023-10-19T01:31:15;36.20;;;18.60;;
76552;SDS011;65395;53.168;18.156;2023-10-19T01:33:56;37.70;;;19.00;;
76552;SDS011;65395;53.168;18.156;2023-10-19T01:36:25;37.20;;;18.90;;
76552;SDS011;65395;53.168;18.156;2023-10-19T01:38:53;40.70;;;20.40;;
76552;SDS011;65395;53.168;18.156;2023-10-19T01:41:22;36.60;;;18.70;;
76552;SDS011;65395;53.168;18.156;2023-10-19T01:43:51;41.60;;;20.60;;
76552;SDS011;65395;53.168;18.156;2023-10-19T01:46:20;36.70;;;19.50;;
76552;SDS011;65395;53.168;18.156;2023-10-19T01:49:00;43.10;;;20.80;;
76552;SDS011;65395;53.168;18.156;2023-10-19T01:51:30;42.90;;;21.40;;
76552;SDS011;65395;53.168;18.156;2023-10-19T01:54:05;38.70;;;20.40;;
76552;SDS011;65395;53.168;18.156;2023-10-19T01:56:33;39.10;;;19.60;;
76552;SDS011;65395;53.168;18.156;2023-10-19T01:59:02;45.40;;;21.40;;
76552;SDS011;65395;53.168;18.156;2023-10-19T02:01:31;43.00;;;20.70;;
76552;SDS011;65395;53.168;18.156;2023-10-19T02:04:00;39.70;;;19.70;;
76552;SDS011;65395;53.168;18.156;2023-10-19T02:06:30;39.60;;;20.30;;
76552;SDS011;65395;53.168;18.156;2023-10-19T02:09:06;37.70;;;19.40;;
76552;SDS011;65395;53.168;18.156;2023-10-19T02:11:40;39.40;;;19.40;;
76552;SDS011;65395;53.168;18.156;2023-10-19T02:14:08;37.10;;;19.20;;
76552;SDS011;65395;53.168;18.156;2023-10-19T02:16:46;42.70;;;21.50;;
76552;SDS011;65395;53.168;18.156;2023-10-19T02:19:19;45.70;;;20.40;;
76552;SDS011;65395;53.168;18.156;2023-10-19T02:21:48;37.60;;;20.30;;
76552;SDS011;65395;53.168;18.156;2023-10-19T02:24:15;42.80;;;20.20;;
76552;SDS011;65395;53.168;18.156;2023-10-19T02:26:43;43.30;;;22.40;;
76552;SDS011;65395;53.168;18.156;2023-10-19T02:29:11;43.10;;;24.10;;
76552;SDS011;65395;53.168;18.156;2023-10-19T02:31:40;42.80;;;23.10;;
76552;SDS011;65395;53.168;18.156;2023-10-19T02:34:08;44.90;;;23.70;;
76552;SDS011;65395;53.168;18.156;2023-10-19T02:36:37;40.50;;;21.10;;
76552;SDS011;65395;53.168;18.156;2023-10-19T02:39:06;39.20;;;21.80;;
76552;SDS011;65395;53.168;18.156;2023-10-19T02:41:36;38.10;;;21.10;;
76552;SDS011;65395;53.168;18.156;2023-10-19T02:44:09;39.00;;;21.40;;
76552;SDS011;65395;53.168;18.156;2023-10-19T02:46:52;42.20;;;21.50;;
76552;SDS011;65395;53.168;18.156;2023-10-19T02:49:25;40.00;;;20.40;;
76552;SDS011;65395;53.168;18.156;2023-10-19T02:51:53;36.10;;;19.70;;
76552;SDS011;65395;53.168;18.156;2023-10-19T02:54:21;36.50;;;20.50;;
76552;SDS011;65395;53.168;18.156;2023-10-19T02:56:51;34.90;;;19.20;;
76552;SDS011;65395;53.168;18.156;2023-10-19T02:59:21;33.70;;;19.50;;
76552;SDS011;65395;53.168;18.156;2023-10-19T03:01:51;42.20;;;20.00;;
76552;SDS011;65395;53.168;18.156;2023-10-19T03:04:28;37.00;;;20.40;;
76552;SDS011;65395;53.168;18.156;2023-10-19T03:06:55;35.30;;;18.80;;
76552;SDS011;65395;53.168;18.156;2023-10-19T03:09:23;37.30;;;20.20;;
76552;SDS011;65395;53.168;18.156;2023-10-19T03:11:56;32.90;;;18.50;;
76552;SDS011;65395;53.168;18.156;2023-10-19T03:14:26;32.90;;;19.70;;
76552;SDS011;65395;53.168;18.156;2023-10-19T03:16:54;37.00;;;20.50;;
76552;SDS011;65395;53.168;18.156;2023-10-19T03:19:22;35.90;;;18.70;;
76552;SDS011;65395;53.168;18.156;2023-10-19T03:21:51;49.80;;;20.80;;
76552;SDS011;65395;53.168;18.156;2023-10-19T03:24:18;37.00;;;19.50;;
76552;SDS011;65395;53.168;18.156;2023-10-19T03:26:55;40.60;;;19.00;;
76552;SDS011;65395;53.168;18.156;2023-10-19T03:29:26;36.70;;;19.30;;
76552;SDS011;65395;53.168;18.156;2023-10-19T03:31:58;35.80;;;18.00;;
76552;SDS011;65395;53.168;18.156;2023-10-19T03:34:26;36.60;;;18.90;;
76552;SDS011;65395;53.168;18.156;2023-10-19T03:36:53;36.90;;;19.50;;
76552;SDS011;65395;53.168;18.156;2023-10-19T03:39:21;37.90;;;19.60;;
76552;SDS011;65395;53.168;18.156;2023-10-19T03:41:48;40.00;;;20.80;;
76552;SDS011;65395;53.168;18.156;2023-10-19T03:44:17;39.30;;;19.80;;
76552;SDS011;65395;53.168;18.156;2023-10-19T03:46:51;40.20;;;19.30;;
76552;SDS011;65395;53.168;18.156;2023-10-19T03:49:19;38.40;;;20.10;;
76552;SDS011;65395;53.168;18.156;2023-10-19T03:51:47;42.40;;;21.00;;
76552;SDS011;65395;53.168;18.156;2023-10-19T03:54:25;41.10;;;20.60;;
76552;SDS011;65395;53.168;18.156;2023-10-19T03:56:54;43.30;;;20.60;;
76552;SDS011;65395;53.168;18.156;2023-10-19T03:59:23;40.60;;;20.50;;
76552;SDS011;65395;53.168;18.156;2023-10-19T04:01:56;40.30;;;19.40;;
76552;SDS011;65395;53.168;18.156;2023-10-19T04:04:22;43.20;;;21.60;;
76552;SDS011;65395;53.168;18.156;2023-10-19T04:06:49;47.20;;;21.30;;
76552;SDS011;65395;53.168;18.156;2023-10-19T04:09:24;40.80;;;21.80;;
76552;SDS011;65395;53.168;18.156;2023-10-19T04:11:55;48.60;;;22.20;;
76552;SDS011;65395;53.168;18.156;2023-10-19T04:14:23;49.20;;;23.30;;
76552;SDS011;65395;53.168;18.156;2023-10-19T04:16:50;43.80;;;22.00;;
76552;SDS011;65395;53.168;18.156;2023-10-19T04:19:17;47.30;;;24.40;;
76552;SDS011;65395;53.168;18.156;2023-10-19T04:21:44;45.40;;;22.30;;
76552;SDS011;65395;53.168;18.156;2023-10-19T04:24:13;44.20;;;21.80;;
76552;SDS011;65395;53.168;18.156;2023-10-19T04:26:40;42.20;;;22.20;;
76552;SDS011;65395;53.168;18.156;2023-10-19T04:29:08;46.10;;;24.00;;
76552;SDS011;65395;53.168;18.156;2023-10-19T04:31:37;43.50;;;22.10;;
76552;SDS011;65395;53.168;18.156;2023-10-19T04:34:17;43.60;;;23.10;;
76552;SDS011;65395;53.168;18.156;2023-10-19T04:36:48;43.80;;;22.10;;
76552;SDS011;65395;53.168;18.156;2023-10-19T04:39:15;49.20;;;22.30;;
76552;SDS011;65395;53.168;18.156;2023-10-19T04:41:45;41.70;;;20.70;;
76552;SDS011;65395;53.168;18.156;2023-10-19T04:44:14;40.90;;;21.60;;
76552;SDS011;65395;53.168;18.156;2023-10-19T04:46:42;44.70;;;22.60;;
76552;SDS011;65395;53.168;18.156;2023-10-19T04:49:09;44.20;;;22.80;;
76552;SDS011;65395;53.168;18.156;2023-10-19T04:51:36;43.90;;;21.90;;
76552;SDS011;65395;53.168;18.156;2023-10-19T04:54:05;40.60;;;20.70;;
76552;SDS011;65395;53.168;18.156;2023-10-19T04:56:35;42.70;;;21.60;;
76552;SDS011;65395;53.168;18.156;2023-10-19T04:59:03;46.30;;;21.50;;
76552;SDS011;65395;53.168;18.156;2023-10-19T05:01:30;43.90;;;22.00;;
76552;SDS011;65395;53.168;18.156;2023-10-19T05:04:00;43.50;;;21.50;;
76552;SDS011;65395;53.168;18.156;2023-10-19T05:06:27;43.60;;;22.10;;
76552;SDS011;65395;53.168;18.156;2023-10-19T05:08:54;45.60;;;24.20;;
76552;SDS011;65395;53.168;18.156;2023-10-19T05:11:21;44.80;;;23.60;;
76552;SDS011;65395;53.168;18.156;2023-10-19T05:13:48;45.30;;;23.60;;
76552;SDS011;65395;53.168;18.156;2023-10-19T05:16:15;48.60;;;23.90;;
76552;SDS011;65395;53.168;18.156;2023-10-19T05:18:41;44.00;;;23.50;;
76552;SDS011;65395;53.168;18.156;2023-10-19T05:21:09;48.00;;;24.30;;
76552;SDS011;65395;53.168;18.156;2023-10-19T05:23:36;45.70;;;23.10;;
76552;SDS011;65395;53.168;18.156;2023-10-19T05:26:04;43.20;;;22.10;;
76552;SDS011;65395;53.168;18.156;2023-10-19T05:28:33;49.60;;;23.60;;
76552;SDS011;65395;53.168;18.156;2023-10-19T05:31:00;47.60;;;23.90;;
76552;SDS011;65395;53.168;18.156;2023-10-19T05:33:27;44.00;;;23.10;;
76552;SDS011;65395;53.168;18.156;2023-10-19T05:35:55;46.20;;;23.40;;
76552;SDS011;65395;53.168;18.156;2023-10-19T05:38:22;44.20;;;23.10;;
76552;SDS011;65395;53.168;18.156;2023-10-19T05:40:49;47.70;;;21.70;;
76552;SDS011;65395;53.168;18.156;2023-10-19T05:43:18;42.80;;;21.90;;
76552;SDS011;65395;53.168;18.156;2023-10-19T05:45:45;40.90;;;22.50;;
76552;SDS011;65395;53.168;18.156;2023-10-19T05:48:15;47.20;;;23.80;;
76552;SDS011;65395;53.168;18.156;2023-10-19T05:50:42;52.90;;;25.90;;
76552;SDS011;65395;53.168;18.156;2023-10-19T05:53:09;50.40;;;26.10;;
76552;SDS011;65395;53.168;18.156;2023-10-19T05:55:36;47.90;;;25.00;;
76552;SDS011;65395;53.168;18.156;2023-10-19T05:58:05;45.90;;;23.70;;
76552;SDS011;65395;53.168;18.156;2023-10-19T06:00:32;47.50;;;23.60;;
76552;SDS011;65395;53.168;18.156;2023-10-19T06:03:01;47.90;;;23.60;;
76552;SDS011;65395;53.168;18.156;2023-10-19T06:05:28;47.50;;;23.00;;
76552;SDS011;65395;53.168;18.156;2023-10-19T06:07:56;40.90;;;21.10;;
76552;SDS011;65395;53.168;18.156;2023-10-19T06:10:27;41.50;;;21.20;;
76552;SDS011;65395;53.168;18.156;2023-10-19T06:12:55;38.20;;;21.10;;
76552;SDS011;65395;53.168;18.156;2023-10-19T06:15:23;37.70;;;19.80;;
76552;SDS011;65395;53.168;18.156;2023-10-19T06:17:51;43.50;;;20.80;;
76552;SDS011;65395;53.168;18.156;2023-10-19T06:20:18;40.80;;;22.10;;
76552;SDS011;65395;53.168;18.156;2023-10-19T06:22:51;41.40;;;20.90;;
76552;SDS011;65395;53.168;18.156;2023-10-19T06:25:23;39.40;;;22.10;;
76552;SDS011;65395;53.168;18.156;2023-10-19T06:27:51;40.30;;;20.30;;
76552;SDS011;65395;53.168;18.156;2023-10-19T06:30:19;37.40;;;20.40;;
76552;SDS011;65395;53.168;18.156;2023-10-19T06:32:50;35.60;;;19.80;;
76552;SDS011;65395;53.168;18.156;2023-10-19T06:35:19;39.20;;;20.90;;
76552;SDS011;65395;53.168;18.156;2023-10-19T06:37:48;39.50;;;19.00;;
76552;SDS011;65395;53.168;18.156;2023-10-19T06:40:15;32.40;;;17.30;;
76552;SDS011;65395;53.168;18.156;2023-10-19T06:42:43;33.30;;;17.50;;
76552;SDS011;65395;53.168;18.156;2023-10-19T06:45:12;33.50;;;18.00;;
76552;SDS011;65395;53.168;18.156;2023-10-19T06:47:41;34.10;;;18.20;;
76552;SDS011;65395;53.168;18.156;2023-10-19T06:50:13;36.90;;;17.50;;
76552;SDS011;65395;53.168;18.156;2023-10-19T06:52:42;29.70;;;17.00;;
76552;SDS011;65395;53.168;18.156;2023-10-19T06:55:11;29.30;;;16.80;;
76552;SDS011;65395;53.168;18.156;2023-10-19T06:57:43;35.00;;;16.90;;
76552;SDS011;65395;53.168;18.156;2023-10-19T07:00:12;31.80;;;17.30;;
76552;SDS011;65395;53.168;18.156;2023-10-19T07:02:42;32.30;;;17.70;;
76552;SDS011;65395;53.168;18.156;2023-10-19T07:05:10;32.10;;;16.90;;
76552;SDS011;65395;53.168;18.156;2023-10-19T07:07:40;28.90;;;16.50;;
76552;SDS011;65395;53.168;18.156;2023-10-19T07:10:08;31.70;;;16.60;;
76552;SDS011;65395;53.168;18.156;2023-10-19T07:12:36;31.30;;;16.90;;
76552;SDS011;65395;53.168;18.156;2023-10-19T07:15:04;32.30;;;18.10;;
76552;SDS011;65395;53.168;18.156;2023-10-19T07:17:34;34.50;;;18.40;;
76552;SDS011;65395;53.168;18.156;2023-10-19T07:20:02;31.00;;;17.40;;
76552;SDS011;65395;53.168;18.156;2023-10-19T07:22:29;33.80;;;16.30;;
76552;SDS011;65395;53.168;18.156;2023-10-19T07:24:57;34.30;;;18.40;;
76552;SDS011;65395;53.168;18.156;2023-10-19T07:27:24;32.70;;;17.30;;
76552;SDS011;65395;53.168;18.156;2023-10-19T07:29:54;30.60;;;16.80;;
76552;SDS011;65395;53.168;18.156;2023-10-19T07:32:21;30.10;;;17.80;;
76552;SDS011;65395;53.168;18.156;2023-10-19T07:34:50;37.10;;;19.40;;
76552;SDS011;65395;53.168;18.156;2023-10-19T07:37:17;34.90;;;19.30;;
76552;SDS011;65395;53.168;18.156;2023-10-19T07:39:44;35.70;;;20.10;;
76552;SDS011;65395;53.168;18.156;2023-10-19T07:42:12;39.00;;;20.40;;
76552;SDS011;65395;53.168;18.156;2023-10-19T07:44:41;43.10;;;21.10;;
76552;SDS011;65395;53.168;18.156;2023-10-19T07:47:08;44.40;;;22.00;;
76552;SDS011;65395;53.168;18.156;2023-10-19T07:49:36;44.30;;;21.80;;
76552;SDS011;65395;53.168;18.156;2023-10-19T07:52:05;45.60;;;21.70;;
76552;SDS011;65395;53.168;18.156;2023-10-19T07:54:34;46.20;;;22.40;;
76552;SDS011;65395;53.168;18.156;2023-10-19T07:57:01;47.70;;;21.90;;
76552;SDS011;65395;53.168;18.156;2023-10-19T07:59:32;43.30;;;21.30;;
76552;SDS011;65395;53.168;18.156;2023-10-19T08:02:00;42.30;;;21.40;;
76552;SDS011;65395;53.168;18.156;2023-10-19T08:04:29;40.90;;;20.70;;
76552;SDS011;65395;53.168;18.156;2023-10-19T08:06:56;38.40;;;21.50;;
76552;SDS011;65395;53.168;18.156;2023-10-19T08:09:24;39.80;;;21.00;;
76552;SDS011;65395;53.168;18.156;2023-10-19T08:11:58;41.50;;;20.60;;
76552;SDS011;65395;53.168;18.156;2023-10-19T08:14:25;43.60;;;20.20;;
76552;SDS011;65395;53.168;18.156;2023-10-19T08:16:56;37.50;;;17.60;;
76552;SDS011;65395;53.168;18.156;2023-10-19T08:19:23;33.40;;;16.30;;
76552;SDS011;65395;53.168;18.156;2023-10-19T08:21:50;27.60;;;14.90;;
76552;SDS011;65395;53.168;18.156;2023-10-19T08:24:17;25.80;;;14.40;;
76552;SDS011;65395;53.168;18.156;2023-10-19T08:26:44;25.40;;;13.70;;
76552;SDS011;65395;53.168;18.156;2023-10-19T08:29:12;22.10;;;13.00;;
76552;SDS011;65395;53.168;18.156;2023-10-19T08:31:42;25.60;;;14.10;;
76552;SDS011;65395;53.168;18.156;2023-10-19T08:34:11;23.90;;;13.20;;
76552;SDS011;65395;53.168;18.156;2023-10-19T08:36:38;25.70;;;12.90;;
76552;SDS011;65395;53.168;18.156;2023-10-19T08:39:06;24.80;;;13.60;;
76552;SDS011;65395;53.168;18.156;2023-10-19T08:41:34;29.30;;;14.30;;
76552;SDS011;65395;53.168;18.156;2023-10-19T08:44:04;26.50;;;13.90;;
76552;SDS011;65395;53.168;18.156;2023-10-19T08:46:42;26.20;;;14.50;;
76552;SDS011;65395;53.168;18.156;2023-10-19T08:49:11;24.20;;;13.00;;
76552;SDS011;65395;53.168;18.156;2023-10-19T08:51:38;27.50;;;14.50;;
76552;SDS011;65395;53.168;18.156;2023-10-19T08:54:11;25.50;;;13.90;;
76552;SDS011;65395;53.168;18.156;2023-10-19T08:56:39;27.80;;;13.50;;
76552;SDS011;65395;53.168;18.156;2023-10-19T08:59:08;25.30;;;13.70;;
76552;SDS011;65395;53.168;18.156;2023-10-19T09:01:37;26.10;;;14.00;;
76552;SDS011;65395;53.168;18.156;2023-10-19T09:04:04;24.40;;;13.70;;
76552;SDS011;65395;53.168;18.156;2023-10-19T09:06:35;24.10;;;12.70;;
76552;SDS011;65395;53.168;18.156;2023-10-19T09:09:11;25.10;;;13.10;;
76552;SDS011;65395;53.168;18.156;2023-10-19T09:11:43;25.40;;;13.60;;
76552;SDS011;65395;53.168;18.156;2023-10-19T09:14:10;26.50;;;13.60;;
76552;SDS011;65395;53.168;18.156;2023-10-19T09:16:52;27.50;;;14.60;;
76552;SDS011;65395;53.168;18.156;2023-10-19T09:22:08;27.90;;;13.60;;
76552;SDS011;65395;53.168;18.156;2023-10-19T09:24:53;24.30;;;13.80;;
76552;SDS011;65395;53.168;18.156;2023-10-19T09:27:20;26.30;;;13.90;;
76552;SDS011;65395;53.168;18.156;2023-10-19T09:29:47;26.00;;;13.70;;
76552;SDS011;65395;53.168;18.156;2023-10-19T09:32:17;26.70;;;12.70;;
76552;SDS011;65395;53.168;18.156;2023-10-19T09:34:45;27.20;;;14.30;;
76552;SDS011;65395;53.168;18.156;2023-10-19T09:37:14;27.70;;;14.60;;
76552;SDS011;65395;53.168;18.156;2023-10-19T09:39:43;26.40;;;15.60;;
76552;SDS011;65395;53.168;18.156;2023-10-19T09:42:11;27.50;;;15.90;;
76552;SDS011;65395;53.168;18.156;2023-10-19T09:44:44;30.80;;;17.60;;
76552;SDS011;65395;53.168;18.156;2023-10-19T09:47:17;29.30;;;17.80;;
76552;SDS011;65395;53.168;18.156;2023-10-19T09:49:53;35.80;;;19.00;;
76552;SDS011;65395;53.168;18.156;2023-10-19T09:52:20;36.30;;;19.30;;
76552;SDS011;65395;53.168;18.156;2023-10-19T09:54:52;41.70;;;20.40;;
76552;SDS011;65395;53.168;18.156;2023-10-19T09:57:30;37.80;;;20.60;;
76552;SDS011;65395;53.168;18.156;2023-10-19T10:00:03;35.90;;;19.40;;
76552;SDS011;65395;53.168;18.156;2023-10-19T10:02:38;32.10;;;18.10;;
76552;SDS011;65395;53.168;18.156;2023-10-19T10:10:43;28.20;;;15.90;;
76552;SDS011;65395;53.168;18.156;2023-10-19T10:16:08;23.50;;;14.00;;
76552;SDS011;65395;53.168;18.156;2023-10-19T10:18:35;29.00;;;15.50;;
76552;SDS011;65395;53.168;18.156;2023-10-19T10:21:05;24.70;;;14.10;;
76552;SDS011;65395;53.168;18.156;2023-10-19T10:23:42;24.50;;;14.10;;
76552;SDS011;65395;53.168;18.156;2023-10-19T10:26:21;21.30;;;12.90;;
76552;SDS011;65395;53.168;18.156;2023-10-19T10:31:41;24.80;;;14.00;;
76552;SDS011;65395;53.168;18.156;2023-10-19T10:34:09;19.50;;;12.20;;
76552;SDS011;65395;53.168;18.156;2023-10-19T10:39:25;19.30;;;11.50;;
76552;SDS011;65395;53.168;18.156;2023-10-19T10:41:56;19.10;;;11.70;;
76552;SDS011;65395;53.168;18.156;2023-10-19T10:52:25;15.70;;;9.30;;
76552;SDS011;65395;53.168;18.156;2023-10-19T10:54:58;15.00;;;9.80;;
76552;SDS011;65395;53.168;18.156;2023-10-19T10:57:33;18.90;;;10.20;;
76552;SDS011;65395;53.168;18.156;2023-10-19T11:00:04;15.40;;;10.20;;
76552;SDS011;65395;53.168;18.156;2023-10-19T11:02:36;17.50;;;10.70;;
76552;SDS011;65395;53.168;18.156;2023-10-19T11:05:10;14.40;;;10.20;;
76552;SDS011;65395;53.168;18.156;2023-10-19T11:07:38;15.60;;;9.60;;
76552;SDS011;65395;53.168;18.156;2023-10-19T11:10:06;19.70;;;9.90;;
76552;SDS011;65395;53.168;18.156;2023-10-19T11:12:36;15.50;;;10.20;;
76552;SDS011;65395;53.168;18.156;2023-10-19T11:15:04;16.30;;;9.50;;
76552;SDS011;65395;53.168;18.156;2023-10-19T11:17:42;22.10;;;9.20;;
76552;SDS011;65395;53.168;18.156;2023-10-19T11:20:20;16.20;;;9.50;;
76552;SDS011;65395;53.168;18.156;2023-10-19T11:22:49;23.70;;;11.70;;
76552;SDS011;65395;53.168;18.156;2023-10-19T11:25:18;22.60;;;11.30;;
76552;SDS011;65395;53.168;18.156;2023-10-19T11:27:46;19.50;;;10.60;;
76552;SDS011;65395;53.168;18.156;2023-10-19T11:30:22;18.60;;;10.00;;
76552;SDS011;65395;53.168;18.156;2023-10-19T11:32:53;16.00;;;9.90;;
76552;SDS011;65395;53.168;18.156;2023-10-19T11:35:25;22.40;;;10.90;;
76552;SDS011;65395;53.168;18.156;2023-10-19T11:37:54;19.00;;;10.30;;
76552;SDS011;65395;53.168;18.156;2023-10-19T11:40:23;16.50;;;10.10;;
76552;SDS011;65395;53.168;18.156;2023-10-19T11:42:51;17.60;;;10.10;;
76552;SDS011;65395;53.168;18.156;2023-10-19T11:45:18;19.70;;;10.50;;
76552;SDS011;65395;53.168;18.156;2023-10-19T11:47:46;20.30;;;10.80;;
76552;SDS011;65395;53.168;18.156;2023-10-19T11:50:12;35.20;;;11.60;;
76552;SDS011;65395;53.168;18.156;2023-10-19T11:52:41;20.70;;;10.10;;
76552;SDS011;65395;53.168;18.156;2023-10-19T11:55:09;17.80;;;10.40;;
76552;SDS011;65395;53.168;18.156;2023-10-19T11:57:36;17.50;;;9.80;;
76552;SDS011;65395;53.168;18.156;2023-10-19T12:00:03;32.80;;;10.60;;
76552;SDS011;65395;53.168;18.156;2023-10-19T12:02:35;24.20;;;10.20;;
76552;SDS011;65395;53.168;18.156;2023-10-19T12:05:04;16.50;;;10.40;;
76552;SDS011;65395;53.168;18.156;2023-10-19T12:07:36;15.40;;;9.50;;
76552;SDS011;65395;53.168;18.156;2023-10-19T12:10:06;20.40;;;10.20;;
76552;SDS011;65395;53.168;18.156;2023-10-19T12:12:35;17.80;;;9.60;;
76552;SDS011;65395;53.168;18.156;2023-10-19T12:15:04;18.40;;;10.10;;
76552;SDS011;65395;53.168;18.156;2023-10-19T12:17:31;17.10;;;9.30;;
76552;SDS011;65395;53.168;18.156;2023-10-19T12:19:59;13.70;;;9.00;;
76552;SDS011;65395;53.168;18.156;2023-10-19T12:22:26;15.80;;;9.20;;
76552;SDS011;65395;53.168;18.156;2023-10-19T12:24:57;15.30;;;8.80;;
76552;SDS011;65395;53.168;18.156;2023-10-19T12:27:25;12.80;;;8.50;;
76552;SDS011;65395;53.168;18.156;2023-10-19T12:29:52;12.30;;;8.10;;
76552;SDS011;65395;53.168;18.156;2023-10-19T12:32:19;38.00;;;8.80;;
76552;SDS011;65395;53.168;18.156;2023-10-19T12:34:46;21.10;;;8.40;;
76552;SDS011;65395;53.168;18.156;2023-10-19T12:37:16;17.40;;;8.70;;
76552;SDS011;65395;53.168;18.156;2023-10-19T12:39:44;14.00;;;8.80;;
76552;SDS011;65395;53.168;18.156;2023-10-19T12:42:15;13.40;;;8.50;;
76552;SDS011;65395;53.168;18.156;2023-10-19T12:44:42;14.50;;;8.70;;
76552;SDS011;65395;53.168;18.156;2023-10-19T12:47:10;14.80;;;8.40;;
76552;SDS011;65395;53.168;18.156;2023-10-19T12:49:40;13.70;;;8.80;;
76552;SDS011;65395;53.168;18.156;2023-10-19T12:52:08;15.00;;;9.60;;
76552;SDS011;65395;53.168;18.156;2023-10-19T12:54:35;15.10;;;8.50;;
76552;SDS011;65395;53.168;18.156;2023-10-19T12:57:03;14.10;;;8.70;;
76552;SDS011;65395;53.168;18.156;2023-10-19T12:59:33;12.90;;;8.90;;
76552;SDS011;65395;53.168;18.156;2023-10-19T13:02:04;13.60;;;8.60;;
76552;SDS011;65395;53.168;18.156;2023-10-19T13:04:34;13.30;;;8.50;;
76552;SDS011;65395;53.168;18.156;2023-10-19T13:07:02;18.10;;;8.40;;
76552;SDS011;65395;53.168;18.156;2023-10-19T13:09:29;14.70;;;8.10;;
76552;SDS011;65395;53.168;18.156;2023-10-19T13:11:57;15.20;;;8.60;;
76552;SDS011;65395;53.168;18.156;2023-10-19T13:14:27;14.90;;;7.80;;
76552;SDS011;65395;53.168;18.156;2023-10-19T13:16:54;12.70;;;8.40;;
76552;SDS011;65395;53.168;18.156;2023-10-19T13:19:21;13.70;;;7.50;;
76552;SDS011;65395;53.168;18.156;2023-10-19T13:21:51;11.80;;;7.30;;
76552;SDS011;65395;53.168;18.156;2023-10-19T13:24:19;14.40;;;8.50;;
76552;SDS011;65395;53.168;18.156;2023-10-19T13:26:47;14.20;;;8.10;;
76552;SDS011;65395;53.168;18.156;2023-10-19T13:29:14;12.30;;;8.00;;
76552;SDS011;65395;53.168;18.156;2023-10-19T13:31:41;17.50;;;7.80;;
76552;SDS011;65395;53.168;18.156;2023-10-19T13:34:15;12.20;;;7.20;;
76552;SDS011;65395;53.168;18.156;2023-10-19T13:36:43;9.80;;;6.80;;
76552;SDS011;65395;53.168;18.156;2023-10-19T13:39:12;14.80;;;7.30;;
76552;SDS011;65395;53.168;18.156;2023-10-19T13:41:43;12.00;;;7.60;;
76552;SDS011;65395;53.168;18.156;2023-10-19T13:44:10;11.30;;;7.00;;
76552;SDS011;65395;53.168;18.156;2023-10-19T13:46:38;11.40;;;7.60;;
76552;SDS011;65395;53.168;18.156;2023-10-19T13:49:05;11.90;;;6.60;;
76552;SDS011;65395;53.168;18.156;2023-10-19T13:51:32;14.70;;;6.40;;
76552;SDS011;65395;53.168;18.156;2023-10-19T13:53:59;15.70;;;6.70;;
76552;SDS011;65395;53.168;18.156;2023-10-19T13:56:26;10.10;;;6.30;;
76552;SDS011;65395;53.168;18.156;2023-10-19T13:58:53;9.30;;;5.80;;
76552;SDS011;65395;53.168;18.156;2023-10-19T14:01:21;9.60;;;6.10;;
76552;SDS011;65395;53.168;18.156;2023-10-19T14:03:51;12.20;;;6.20;;
76552;SDS011;65395;53.168;18.156;2023-10-19T14:06:21;9.10;;;6.10;;
76552;SDS011;65395;53.168;18.156;2023-10-19T14:08:50;9.10;;;5.70;;
76552;SDS011;65395;53.168;18.156;2023-10-19T14:11:17;9.00;;;4.90;;
76552;SDS011;65395;53.168;18.156;2023-10-19T14:13:44;7.90;;;5.20;;
76552;SDS011;65395;53.168;18.156;2023-10-19T14:16:12;9.30;;;5.30;;
76552;SDS011;65395;53.168;18.156;2023-10-19T14:18:38;8.30;;;5.00;;
76552;SDS011;65395;53.168;18.156;2023-10-19T14:23:43;8.50;;;5.60;;
76552;SDS011;65395;53.168;18.156;2023-10-19T14:26:11;10.30;;;5.70;;
76552;SDS011;65395;53.168;18.156;2023-10-19T14:28:38;9.10;;;5.30;;
76552;SDS011;65395;53.168;18.156;2023-10-19T14:31:06;9.00;;;5.50;;
76552;SDS011;65395;53.168;18.156;2023-10-19T14:33:34;10.90;;;5.10;;
76552;SDS011;65395;53.168;18.156;2023-10-19T14:36:02;10.90;;;5.20;;
76552;SDS011;65395;53.168;18.156;2023-10-19T14:38:30;10.20;;;5.60;;
76552;SDS011;65395;53.168;18.156;2023-10-19T14:40:58;8.10;;;5.40;;
76552;SDS011;65395;53.168;18.156;2023-10-19T14:43:25;10.20;;;5.70;;
76552;SDS011;65395;53.168;18.156;2023-10-19T14:45:52;12.40;;;6.00;;
76552;SDS011;65395;53.168;18.156;2023-10-19T14:48:19;9.20;;;5.20;;
76552;SDS011;65395;53.168;18.156;2023-10-19T14:50:45;8.80;;;5.10;;
76552;SDS011;65395;53.168;18.156;2023-10-19T14:53:13;10.10;;;5.70;;